sensor_id;sensor_type;location;lat;lon;timestamp;pressure;altitude;pressure_sealevel;temperature;humidity
21588;BME280;10956;48.878;13.316;2023-12-22T00:00:59;92272.53;;;2.23;100.00
21588;BME280;10956;48.878;13.316;2023-12-22T00:03:24;92302.66;;;2.19;100.00
21588;BME280;10956;48.878;13.316;2023-12-22T00:05:50;92309.94;;;2.28;100.00
21588;BME280;10956;48.878;13.316;2023-12-22T00:08:15;92309.41;;;2.31;100.00
21588;BME280;10956;48.878;13.316;2023-12-22T00:10:40;92292.28;;;2.35;100.00
21588;BME280;10956;48.878;13.316;2023-12-22T00:13:06;92273.56;;;2.33;100.00
21588;BME280;10956;48.878;13.316;2023-12-22T00:15:31;92306.31;;;2.39;100.00
21588;BME280;10956;48.878;13.316;2023-12-22T00:17:56;92292.53;;;2.38;100.00
21588;BME280;10956;48.878;13.316;2023-12-22T00:20:22;92292.78;;;2.37;100.00
21588;BME280;10956;48.878;13.316;2023-12-22T00:22:47;92280.84;;;2.36;100.00
21588;BME280;10956;48.878;13.316;2023-12-22T00:25:13;92301.88;;;2.29;100.00
21588;BME280;10956;48.878;13.316;2023-12-22T00:27:38;92299.03;;;2.31;100.00
21588;BME280;10956;48.878;13.316;2023-12-22T00:30:04;92325.53;;;2.33;100.00
21588;BME280;10956;48.878;13.316;2023-12-22T00:32:29;92341.91;;;2.38;100.00
21588;BME280;10956;48.878;13.316;2023-12-22T00:34:55;92320.34;;;2.38;100.00
21588;BME280;10956;48.878;13.316;2023-12-22T00:37:21;92332.81;;;2.36;100.00
21588;BME280;10956;48.878;13.316;2023-12-22T00:39:47;92331.78;;;2.42;100.00
21588;BME280;10956;48.878;13.316;2023-12-22T00:42:12;92328.91;;;2.43;100.00
21588;BME280;10956;48.878;13.316;2023-12-22T00:44:38;92330.72;;;2.43;100.00
21588;BME280;10956;48.878;13.316;2023-12-22T00:47:05;92341.66;;;2.50;100.00
21588;BME280;10956;48.878;13.316;2023-12-22T00:49:30;92322.16;;;2.42;100.00
21588;BME280;10956;48.878;13.316;2023-12-22T00:51:56;92321.91;;;2.49;100.00
21588;BME280;10956;48.878;13.316;2023-12-22T00:54:21;92328.66;;;2.45;100.00
21588;BME280;10956;48.878;13.316;2023-12-22T00:56:46;92317.22;;;2.41;100.00
21588;BME280;10956;48.878;13.316;2023-12-22T00:59:12;92349.97;;;2.47;100.00
21588;BME280;10956;48.878;13.316;2023-12-22T01:01:37;92332.81;;;2.46;100.00
21588;BME280;10956;48.878;13.316;2023-12-22T01:04:03;92326.06;;;2.45;100.00
21588;BME280;10956;48.878;13.316;2023-12-22T01:06:28;92266.78;;;2.47;100.00
21588;BME280;10956;48.878;13.316;2023-12-22T01:08:54;92336.97;;;2.37;100.00
21588;BME280;10956;48.878;13.316;2023-12-22T01:11:19;92334.91;;;2.34;100.00
21588;BME280;10956;48.878;13.316;2023-12-22T01:13:45;92341.66;;;2.24;100.00
21588;BME280;10956;48.878;13.316;2023-12-22T01:16:10;92345.81;;;2.20;100.00
21588;BME280;10956;48.878;13.316;2023-12-22T01:18:35;92315.16;;;2.22;100.00
21588;BME280;10956;48.878;13.316;2023-12-22T01:21:01;92362.97;;;2.21;100.00
21588;BME280;10956;48.878;13.316;2023-12-22T01:23:26;92380.09;;;2.22;100.00
21588;BME280;10956;48.878;13.316;2023-12-22T01:25:52;92372.31;;;2.28;100.00
21588;BME280;10956;48.878;13.316;2023-12-22T01:28:17;92392.06;;;2.18;100.00
21588;BME280;10956;48.878;13.316;2023-12-22T01:30:43;92375.69;;;2.23;100.00
21588;BME280;10956;48.878;13.316;2023-12-22T01:33:08;92339.56;;;2.37;100.00
21588;BME280;10956;48.878;13.316;2023-12-22T01:35:33;92329.69;;;2.34;100.00
21588;BME280;10956;48.878;13.316;2023-12-22T01:37:59;92349.44;;;2.19;100.00
21588;BME280;10956;48.878;13.316;2023-12-22T01:40:24;92344.25;;;2.19;100.00
21588;BME280;10956;48.878;13.316;2023-12-22T01:42:50;92352.81;;;2.15;100.00
21588;BME280;10956;48.878;13.316;2023-12-22T01:45:16;92334.38;;;2.21;100.00
21588;BME280;10956;48.878;13.316;2023-12-22T01:47:41;92311.50;;;2.18;100.00
21588;BME280;10956;48.878;13.316;2023-12-22T01:50:08;92344.75;;;2.16;100.00
21588;BME280;10956;48.878;13.316;2023-12-22T01:52:36;92342.16;;;2.01;100.00
21588;BME280;10956;48.878;13.316;2023-12-22T01:55:02;92341.09;;;1.97;100.00
21588;BME280;10956;48.878;13.316;2023-12-22T01:57:28;92337.47;;;2.08;100.00
21588;BME280;10956;48.878;13.316;2023-12-22T01:59:54;92339.56;;;2.06;100.00
21588;BME280;10956;48.878;13.316;2023-12-22T02:02:22;92337.22;;;2.05;100.00
21588;BME280;10956;48.878;13.316;2023-12-22T02:04:47;92351.50;;;1.97;100.00
21588;BME280;10956;48.878;13.316;2023-12-22T02:07:13;92343.72;;;2.02;100.00
21588;BME280;10956;48.878;13.316;2023-12-22T02:09:38;92343.19;;;2.05;100.00
21588;BME280;10956;48.878;13.316;2023-12-22T02:12:04;92343.72;;;2.02;100.00
21588;BME280;10956;48.878;13.316;2023-12-22T02:14:30;92361.63;;;1.93;100.00
21588;BME280;10956;48.878;13.316;2023-12-22T02:17:02;92367.84;;;1.87;100.00
21588;BME280;10956;48.878;13.316;2023-12-22T02:19:45;92342.38;;;1.84;100.00
21588;BME280;10956;48.878;13.316;2023-12-22T02:22:12;92345.78;;;1.90;100.00
21588;BME280;10956;48.878;13.316;2023-12-22T02:24:39;92350.44;;;1.93;100.00
21588;BME280;10956;48.878;13.316;2023-12-22T02:27:06;92407.31;;;1.89;100.00
21588;BME280;10956;48.878;13.316;2023-12-22T02:29:43;92352.00;;;1.94;100.00
21588;BME280;10956;48.878;13.316;2023-12-22T02:32:37;92342.66;;;1.98;100.00
21588;BME280;10956;48.878;13.316;2023-12-22T02:35:03;92353.59;;;2.05;100.00
21588;BME280;10956;48.878;13.316;2023-12-22T02:37:30;92326.03;;;2.04;100.00
21588;BME280;10956;48.878;13.316;2023-12-22T02:39:58;92314.09;;;2.03;100.00
21588;BME280;10956;48.878;13.316;2023-12-22T02:42:25;92314.09;;;2.13;100.00
21588;BME280;10956;48.878;13.316;2023-12-22T02:44:56;92336.44;;;2.04;100.00
21588;BME280;10956;48.878;13.316;2023-12-22T02:47:22;92347.88;;;2.13;100.00
21588;BME280;10956;48.878;13.316;2023-12-22T02:49:47;92353.06;;;2.18;100.00
21588;BME280;10956;48.878;13.316;2023-12-22T02:52:13;92352.03;;;2.09;100.00
21588;BME280;10956;48.878;13.316;2023-12-22T02:54:38;92369.16;;;2.05;100.00
21588;BME280;10956;48.878;13.316;2023-12-22T02:57:06;92365.53;;;2.06;100.00
21588;BME280;10956;48.878;13.316;2023-12-22T02:59:32;92366.56;;;2.00;100.00
21588;BME280;10956;48.878;13.316;2023-12-22T03:01:57;92363.72;;;2.02;100.00
21588;BME280;10956;48.878;13.316;2023-12-22T03:04:22;92372.28;;;2.07;100.00
21588;BME280;10956;48.878;13.316;2023-12-22T03:06:48;92371.78;;;2.10;100.00
21588;BME280;10956;48.878;13.316;2023-12-22T03:09:13;92370.22;;;2.09;100.00
21588;BME280;10956;48.878;13.316;2023-12-22T03:11:38;92366.06;;;2.13;100.00
21588;BME280;10956;48.878;13.316;2023-12-22T03:14:04;92345.25;;;1.93;100.00
21588;BME280;10956;48.878;13.316;2023-12-22T03:16:29;92359.25;;;1.82;100.00
21588;BME280;10956;48.878;13.316;2023-12-22T03:18:55;92368.63;;;1.88;100.00
21588;BME280;10956;48.878;13.316;2023-12-22T03:21:20;92385.22;;;1.82;100.00
21588;BME280;10956;48.878;13.316;2023-12-22T03:23:45;92382.91;;;1.90;100.00
21588;BME280;10956;48.878;13.316;2023-12-22T03:26:11;92383.72;;;2.01;100.00
21588;BME280;10956;48.878;13.316;2023-12-22T03:28:36;92386.31;;;1.96;100.00
21588;BME280;10956;48.878;13.316;2023-12-22T03:31:03;92371.75;;;2.00;100.00
21588;BME280;10956;48.878;13.316;2023-12-22T03:33:28;92384.22;;;2.03;100.00
21588;BME280;10956;48.878;13.316;2023-12-22T03:35:54;92390.97;;;1.99;100.00
21588;BME280;10956;48.878;13.316;2023-12-22T03:38:19;92388.16;;;2.11;100.00
21588;BME280;10956;48.878;13.316;2023-12-22T03:40:45;92380.59;;;2.04;100.00
21588;BME280;10956;48.878;13.316;2023-12-22T03:43:10;92386.31;;;2.01;100.00
21588;BME280;10956;48.878;13.316;2023-12-22T03:45:35;92385.53;;;2.06;100.00
21588;BME280;10956;48.878;13.316;2023-12-22T03:48:01;92376.44;;;1.98;100.00
21588;BME280;10956;48.878;13.316;2023-12-22T03:50:26;92380.06;;;1.92;100.00
21588;BME280;10956;48.878;13.316;2023-12-22T03:52:51;92378.75;;;1.94;100.00
21588;BME280;10956;48.878;13.316;2023-12-22T03:55:17;92387.59;;;1.93;100.00
21588;BME280;10956;48.878;13.316;2023-12-22T03:57:43;92390.97;;;1.99;100.00
21588;BME280;10956;48.878;13.316;2023-12-22T04:00:08;92380.59;;;1.99;100.00
21588;BME280;10956;48.878;13.316;2023-12-22T04:02:34;92381.09;;;1.96;100.00
21588;BME280;10956;48.878;13.316;2023-12-22T04:04:59;92383.19;;;1.94;100.00
21588;BME280;10956;48.878;13.316;2023-12-22T04:07:25;92367.09;;;1.97;100.00
21588;BME280;10956;48.878;13.316;2023-12-22T04:09:50;92373.03;;;1.92;100.00
21588;BME280;10956;48.878;13.316;2023-12-22T04:12:15;92373.31;;;2.01;100.00
21588;BME280;10956;48.878;13.316;2023-12-22T04:14:41;92369.44;;;2.04;100.00
21588;BME280;10956;48.878;13.316;2023-12-22T04:17:06;92356.19;;;2.00;100.00
21588;BME280;10956;48.878;13.316;2023-12-22T04:19:31;92351.75;;;2.01;100.00
21588;BME280;10956;48.878;13.316;2023-12-22T04:21:57;92357.72;;;2.01;100.00
21588;BME280;10956;48.878;13.316;2023-12-22T04:24:22;92360.31;;;1.96;100.00
21588;BME280;10956;48.878;13.316;2023-12-22T04:26:48;92355.13;;;1.91;100.00
21588;BME280;10956;48.878;13.316;2023-12-22T04:29:14;92366.53;;;1.80;100.00
21588;BME280;10956;48.878;13.316;2023-12-22T04:31:40;92373.78;;;1.78;100.00
21588;BME280;10956;48.878;13.316;2023-12-22T04:34:05;92349.41;;;1.84;100.00
21588;BME280;10956;48.878;13.316;2023-12-22T04:36:31;92347.31;;;1.81;100.00
21588;BME280;10956;48.878;13.316;2023-12-22T04:38:56;92345.75;;;1.80;100.00
21588;BME280;10956;48.878;13.316;2023-12-22T04:41:22;92361.34;;;1.90;100.00
21588;BME280;10956;48.878;13.316;2023-12-22T04:43:47;92355.09;;;1.81;100.00
21588;BME280;10956;48.878;13.316;2023-12-22T04:46:12;92376.41;;;1.93;100.00
21588;BME280;10956;48.878;13.316;2023-12-22T04:48:38;92367.59;;;1.94;100.00
21588;BME280;10956;48.878;13.316;2023-12-22T04:51:03;92378.50;;;1.91;100.00
21588;BME280;10956;48.878;13.316;2023-12-22T04:53:29;92403.19;;;1.99;100.00
21588;BME280;10956;48.878;13.316;2023-12-22T04:55:54;92390.69;;;1.90;100.00
21588;BME280;10956;48.878;13.316;2023-12-22T04:58:20;92390.97;;;1.94;100.00
21588;BME280;10956;48.878;13.316;2023-12-22T05:00:45;92362.41;;;1.94;100.00
21588;BME280;10956;48.878;13.316;2023-12-22T05:03:10;92403.97;;;2.04;100.00
21588;BME280;10956;48.878;13.316;2023-12-22T05:05:36;92357.19;;;1.94;100.00
21588;BME280;10956;48.878;13.316;2023-12-22T05:08:01;92385.72;;;1.79;100.00
21588;BME280;10956;48.878;13.316;2023-12-22T05:10:27;92391.41;;;1.66;100.00
21588;BME280;10956;48.878;13.316;2023-12-22T05:12:53;92388.59;;;1.77;100.00
21588;BME280;10956;48.878;13.316;2023-12-22T05:15:19;92401.31;;;1.79;100.00
21588;BME280;10956;48.878;13.316;2023-12-22T05:17:44;92396.38;;;1.82;100.00
21588;BME280;10956;48.878;13.316;2023-12-22T05:20:10;92403.13;;;1.78;100.00
21588;BME280;10956;48.878;13.316;2023-12-22T05:22:39;92410.66;;;1.80;100.00
21588;BME280;10956;48.878;13.316;2023-12-22T05:25:05;92401.84;;;1.86;100.00
21588;BME280;10956;48.878;13.316;2023-12-22T05:27:30;92397.72;;;1.90;100.00
21588;BME280;10956;48.878;13.316;2023-12-22T05:29:56;92431.47;;;1.85;100.00
21588;BME280;10956;48.878;13.316;2023-12-22T05:32:27;92415.38;;;1.88;100.00
21588;BME280;10956;48.878;13.316;2023-12-22T05:34:52;92411.22;;;1.92;100.00
21588;BME280;10956;48.878;13.316;2023-12-22T05:37:18;92413.56;;;1.93;100.00
21588;BME280;10956;48.878;13.316;2023-12-22T05:39:43;92406.03;;;1.92;100.00
21588;BME280;10956;48.878;13.316;2023-12-22T05:42:10;92414.84;;;1.91;100.00
21588;BME280;10956;48.878;13.316;2023-12-22T05:44:36;92423.19;;;1.93;100.00
21588;BME280;10956;48.878;13.316;2023-12-22T05:47:04;92422.63;;;1.86;100.00
21588;BME280;10956;48.878;13.316;2023-12-22T05:49:30;92423.69;;;1.95;100.00
21588;BME280;10956;48.878;13.316;2023-12-22T05:51:55;92428.63;;;1.97;100.00
21588;BME280;10956;48.878;13.316;2023-12-22T05:54:20;92434.59;;;1.92;100.00
21588;BME280;10956;48.878;13.316;2023-12-22T05:56:46;92428.31;;;1.78;100.00
21588;BME280;10956;48.878;13.316;2023-12-22T05:59:11;92436.66;;;1.85;100.00
21588;BME280;10956;48.878;13.316;2023-12-22T06:01:37;92426.56;;;1.93;100.00
21588;BME280;10956;48.878;13.316;2023-12-22T06:04:02;92420.59;;;1.98;100.00
21588;BME280;10956;48.878;13.316;2023-12-22T06:06:28;92419.53;;;1.94;100.00
21588;BME280;10956;48.878;13.316;2023-12-22T06:08:55;92413.81;;;1.87;100.00
21588;BME280;10956;48.878;13.316;2023-12-22T06:11:20;92423.19;;;1.93;100.00
21588;BME280;10956;48.878;13.316;2023-12-22T06:13:46;92433.56;;;1.93;100.00
21588;BME280;10956;48.878;13.316;2023-12-22T06:16:12;92423.72;;;2.00;100.00
21588;BME280;10956;48.878;13.316;2023-12-22T06:18:40;92434.84;;;1.90;100.00
21588;BME280;10956;48.878;13.316;2023-12-22T06:21:06;92446.03;;;1.91;100.00
21588;BME280;10956;48.878;13.316;2023-12-22T06:23:32;92456.41;;;1.91;100.00
21588;BME280;10956;48.878;13.316;2023-12-22T06:25:57;92455.88;;;1.84;100.00
21588;BME280;10956;48.878;13.316;2023-12-22T06:28:22;92460.56;;;1.87;100.00
21588;BME280;10956;48.878;13.316;2023-12-22T06:30:48;92467.88;;;2.00;100.00
21588;BME280;10956;48.878;13.316;2023-12-22T06:33:13;92453.84;;;2.01;100.00
21588;BME280;10956;48.878;13.316;2023-12-22T06:35:39;92452.78;;;1.92;100.00
21588;BME280;10956;48.878;13.316;2023-12-22T06:38:06;92472.78;;;1.91;100.00
21588;BME280;10956;48.878;13.316;2023-12-22T06:40:32;92500.81;;;1.89;100.00
21588;BME280;10956;48.878;13.316;2023-12-22T06:42:59;92470.44;;;1.90;100.00
21588;BME280;10956;48.878;13.316;2023-12-22T06:45:24;92463.16;;;1.92;100.00
21588;BME280;10956;48.878;13.316;2023-12-22T06:47:50;92469.44;;;2.01;100.00
21588;BME280;10956;48.878;13.316;2023-12-22T06:50:15;92453.59;;;2.03;100.00
21588;BME280;10956;48.878;13.316;2023-12-22T06:52:40;92478.28;;;2.05;100.00
21588;BME280;10956;48.878;13.316;2023-12-22T06:55:06;92469.91;;;1.88;100.00
21588;BME280;10956;48.878;13.316;2023-12-22T06:57:31;92467.84;;;1.95;100.00
21588;BME280;10956;48.878;13.316;2023-12-22T06:59:57;92464.72;;;1.93;100.00
21588;BME280;10956;48.878;13.316;2023-12-22T07:02:22;92483.94;;;1.92;100.00
21588;BME280;10956;48.878;13.316;2023-12-22T07:07:35;92498.97;;;1.85;100.00
21588;BME280;10956;48.878;13.316;2023-12-22T07:10:01;92504.69;;;1.82;100.00
21588;BME280;10956;48.878;13.316;2023-12-22T07:12:26;92498.97;;;1.85;100.00
21588;BME280;10956;48.878;13.316;2023-12-22T07:14:52;92493.81;;;1.90;100.00
21588;BME280;10956;48.878;13.316;2023-12-22T07:17:17;92505.75;;;1.91;100.00
21588;BME280;10956;48.878;13.316;2023-12-22T07:19:42;92499.59;;;2.07;100.00
21588;BME280;10956;48.878;13.316;2023-12-22T07:22:08;92486.09;;;2.10;100.00
21588;BME280;10956;48.878;13.316;2023-12-22T07:24:33;92492.34;;;2.14;100.00
21588;BME280;10956;48.878;13.316;2023-12-22T07:26:59;92511.06;;;2.16;100.00
21588;BME280;10956;48.878;13.316;2023-12-22T07:29:24;92525.09;;;2.20;100.00
21588;BME280;10956;48.878;13.316;2023-12-22T07:31:50;92511.59;;;2.23;100.00
21588;BME280;10956;48.878;13.316;2023-12-22T07:34:16;92526.66;;;2.16;100.00
21588;BME280;10956;48.878;13.316;2023-12-22T07:36:42;92523.28;;;2.21;100.00
21588;BME280;10956;48.878;13.316;2023-12-22T07:39:07;92520.97;;;2.24;100.00
21588;BME280;10956;48.878;13.316;2023-12-22T07:41:34;92524.84;;;2.22;100.00
21588;BME280;10956;48.878;13.316;2023-12-22T07:43:59;92513.69;;;2.21;100.00
21588;BME280;10956;48.878;13.316;2023-12-22T07:46:26;92528.25;;;2.28;100.00
21588;BME280;10956;48.878;13.316;2023-12-22T07:48:53;92504.34;;;2.31;100.00
21588;BME280;10956;48.878;13.316;2023-12-22T07:51:19;92508.50;;;2.32;100.00
21588;BME280;10956;48.878;13.316;2023-12-22T07:53:44;92501.25;;;2.34;100.00
21588;BME280;10956;48.878;13.316;2023-12-22T07:56:10;92511.41;;;2.40;100.00
21588;BME280;10956;48.878;13.316;2023-12-22T07:58:36;92530.34;;;2.36;100.00
21588;BME280;10956;48.878;13.316;2023-12-22T08:01:02;92517.88;;;2.33;100.00
21588;BME280;10956;48.878;13.316;2023-12-22T08:03:28;92542.78;;;2.18;100.00
21588;BME280;10956;48.878;13.316;2023-12-22T08:05:53;92540.16;;;2.18;100.00
21588;BME280;10956;48.878;13.316;2023-12-22T08:08:19;92523.00;;;2.17;100.00
21588;BME280;10956;48.878;13.316;2023-12-22T08:10:44;92546.41;;;2.22;100.00
21588;BME280;10956;48.878;13.316;2023-12-22T08:13:10;92556.31;;;2.25;100.00
21588;BME280;10956;48.878;13.316;2023-12-22T08:15:35;92554.47;;;2.21;100.00
21588;BME280;10956;48.878;13.316;2023-12-22T08:18:00;92560.44;;;2.21;100.00
21588;BME280;10956;48.878;13.316;2023-12-22T08:20:26;92548.53;;;2.31;100.00
21588;BME280;10956;48.878;13.316;2023-12-22T08:22:51;92552.72;;;2.37;100.00
21588;BME280;10956;48.878;13.316;2023-12-22T08:25:17;92545.41;;;2.29;100.00
21588;BME280;10956;48.878;13.316;2023-12-22T08:27:45;92551.13;;;2.31;100.00
21588;BME280;10956;48.878;13.316;2023-12-22T08:30:11;92541.78;;;2.35;100.00
21588;BME280;10956;48.878;13.316;2023-12-22T08:32:37;92544.13;;;2.31;100.00
21588;BME280;10956;48.878;13.316;2023-12-22T08:35:03;92542.31;;;2.37;100.00
21588;BME280;10956;48.878;13.316;2023-12-22T08:37:30;92542.81;;;2.29;100.00
21588;BME280;10956;48.878;13.316;2023-12-22T08:39:55;92562.53;;;2.19;100.00
21588;BME280;10956;48.878;13.316;2023-12-22T08:42:20;92550.50;;;2.03;100.00
21588;BME280;10956;48.878;13.316;2023-12-22T08:44:47;92548.19;;;2.07;100.00
21588;BME280;10956;48.878;13.316;2023-12-22T08:47:13;92542.75;;;2.13;100.00
21588;BME280;10956;48.878;13.316;2023-12-22T08:49:38;92557.31;;;2.19;100.00
21588;BME280;10956;48.878;13.316;2023-12-22T08:52:03;92552.38;;;2.18;100.00
21588;BME280;10956;48.878;13.316;2023-12-22T08:54:30;92537.56;;;2.13;100.00
21588;BME280;10956;48.878;13.316;2023-12-22T08:56:55;92543.28;;;2.15;100.00
21588;BME280;10956;48.878;13.316;2023-12-22T08:59:20;92571.81;;;2.05;100.00
21588;BME280;10956;48.878;13.316;2023-12-22T09:01:46;92530.25;;;2.05;100.00
21588;BME280;10956;48.878;13.316;2023-12-22T09:04:11;92573.59;;;2.00;100.00
21588;BME280;10956;48.878;13.316;2023-12-22T09:06:37;92562.38;;;1.89;100.00
21588;BME280;10956;48.878;13.316;2023-12-22T09:09:04;92583.69;;;1.91;100.00
21588;BME280;10956;48.878;13.316;2023-12-22T09:11:29;92574.84;;;1.92;100.00
21588;BME280;10956;48.878;13.316;2023-12-22T09:13:55;92555.06;;;1.81;100.00
21588;BME280;10956;48.878;13.316;2023-12-22T09:16:23;92589.00;;;1.69;100.00
21588;BME280;10956;48.878;13.316;2023-12-22T09:18:52;92604.19;;;1.50;100.00
21588;BME280;10956;48.878;13.316;2023-12-22T09:21:18;92613.06;;;1.54;100.00
21588;BME280;10956;48.878;13.316;2023-12-22T09:23:46;92629.13;;;1.51;100.00
21588;BME280;10956;48.878;13.316;2023-12-22T09:26:13;92634.78;;;1.43;100.00
21588;BME280;10956;48.878;13.316;2023-12-22T09:28:39;92637.38;;;1.43;100.00
21588;BME280;10956;48.878;13.316;2023-12-22T09:31:06;92628.09;;;1.52;100.00
21588;BME280;10956;48.878;13.316;2023-12-22T09:33:32;92620.09;;;1.59;100.00
21588;BME280;10956;48.878;13.316;2023-12-22T09:35:57;92608.03;;;1.80;100.00
21588;BME280;10956;48.878;13.316;2023-12-22T09:38:23;92623.38;;;1.81;100.00
21588;BME280;10956;48.878;13.316;2023-12-22T09:40:49;92630.94;;;1.88;100.00
21588;BME280;10956;48.878;13.316;2023-12-22T09:43:15;92626.34;;;2.00;100.00
21588;BME280;10956;48.878;13.316;2023-12-22T09:45:41;92622.22;;;2.04;100.00
21588;BME280;10956;48.878;13.316;2023-12-22T09:48:07;92655.50;;;2.12;100.00
21588;BME280;10956;48.878;13.316;2023-12-22T09:50:34;92645.72;;;2.30;100.00
21588;BME280;10956;48.878;13.316;2023-12-22T09:53:02;92654.38;;;2.45;100.00
21588;BME280;10956;48.878;13.316;2023-12-22T09:55:28;92641.09;;;2.37;100.00
21588;BME280;10956;48.878;13.316;2023-12-22T09:57:55;92621.34;;;2.41;100.00
21588;BME280;10956;48.878;13.316;2023-12-22T10:00:22;92636.16;;;2.40;100.00
21588;BME280;10956;48.878;13.316;2023-12-22T10:02:48;92632.34;;;2.58;100.00
21588;BME280;10956;48.878;13.316;2023-12-22T10:05:14;92620.66;;;2.61;100.00
21588;BME280;10956;48.878;13.316;2023-12-22T10:07:41;92638.56;;;2.57;100.00
21588;BME280;10956;48.878;13.316;2023-12-22T10:10:10;92640.66;;;2.55;100.00
21588;BME280;10956;48.878;13.316;2023-12-22T10:12:38;92631.81;;;2.56;100.00
21588;BME280;10956;48.878;13.316;2023-12-22T10:15:05;92623.00;;;2.67;100.00
21588;BME280;10956;48.878;13.316;2023-12-22T10:17:33;92639.66;;;2.66;100.00
21588;BME280;10956;48.878;13.316;2023-12-22T10:19:59;92617.28;;;2.65;100.00
21588;BME280;10956;48.878;13.316;2023-12-22T10:22:24;92627.69;;;2.70;100.00
21588;BME280;10956;48.878;13.316;2023-12-22T10:24:50;92619.94;;;2.80;100.00
21588;BME280;10956;48.878;13.316;2023-12-22T10:27:17;92609.00;;;2.83;100.00
21588;BME280;10956;48.878;13.316;2023-12-22T10:29:50;92636.06;;;2.77;100.00
21588;BME280;10956;48.878;13.316;2023-12-22T10:32:16;92629.59;;;2.90;100.00
21588;BME280;10956;48.878;13.316;2023-12-22T10:34:42;92624.16;;;3.02;100.00
21588;BME280;10956;48.878;13.316;2023-12-22T10:37:08;92607.25;;;3.09;100.00
21588;BME280;10956;48.878;13.316;2023-12-22T10:39:36;92608.56;;;3.27;100.00
21588;BME280;10956;48.878;13.316;2023-12-22T10:42:02;92611.94;;;3.22;100.00
21588;BME280;10956;48.878;13.316;2023-12-22T10:44:28;92630.44;;;3.31;100.00
21588;BME280;10956;48.878;13.316;2023-12-22T10:46:54;92606.50;;;3.29;100.00
21588;BME280;10956;48.878;13.316;2023-12-22T10:49:21;92617.16;;;3.22;100.00
21588;BME280;10956;48.878;13.316;2023-12-22T10:51:46;92618.22;;;3.27;100.00
21588;BME280;10956;48.878;13.316;2023-12-22T10:54:12;92594.50;;;3.23;100.00
21588;BME280;10956;48.878;13.316;2023-12-22T10:56:39;92612.72;;;3.23;100.00
21588;BME280;10956;48.878;13.316;2023-12-22T10:59:05;92600.78;;;3.32;100.00
21588;BME280;10956;48.878;13.316;2023-12-22T11:01:31;92598.16;;;3.37;100.00
21588;BME280;10956;48.878;13.316;2023-12-22T11:04:05;92579.69;;;3.39;100.00
21588;BME280;10956;48.878;13.316;2023-12-22T11:06:34;92588.78;;;3.41;100.00
21588;BME280;10956;48.878;13.316;2023-12-22T11:09:11;92599.72;;;3.38;100.00
21588;BME280;10956;48.878;13.316;2023-12-22T11:11:39;92592.44;;;3.40;100.00
21588;BME280;10956;48.878;13.316;2023-12-22T11:14:06;92573.69;;;3.38;100.00
21588;BME280;10956;48.878;13.316;2023-12-22T11:16:34;92583.84;;;3.35;100.00
21588;BME280;10956;48.878;13.316;2023-12-22T11:19:00;92579.41;;;3.45;100.00
21588;BME280;10956;48.878;13.316;2023-12-22T11:21:27;92579.16;;;3.42;100.00
21588;BME280;10956;48.878;13.316;2023-12-22T11:23:54;92576.81;;;3.40;100.00
21588;BME280;10956;48.878;13.316;2023-12-22T11:26:24;92590.34;;;3.42;100.00
21588;BME280;10956;48.878;13.316;2023-12-22T11:28:50;92569.53;;;3.42;100.00
21588;BME280;10956;48.878;13.316;2023-12-22T11:31:19;92566.16;;;3.27;100.00
21588;BME280;10956;48.878;13.316;2023-12-22T11:33:49;92573.16;;;3.31;100.00
21588;BME280;10956;48.878;13.316;2023-12-22T11:36:16;92557.56;;;3.31;100.00
21588;BME280;10956;48.878;13.316;2023-12-22T11:38:44;92560.94;;;3.32;100.00
21588;BME280;10956;48.878;13.316;2023-12-22T11:41:21;92553.91;;;3.27;100.00
21588;BME280;10956;48.878;13.316;2023-12-22T11:43:50;92549.22;;;3.19;100.00
21588;BME280;10956;48.878;13.316;2023-12-22T11:46:17;92544.53;;;3.16;100.00
21588;BME280;10956;48.878;13.316;2023-12-22T11:48:51;92546.63;;;3.24;100.00
21588;BME280;10956;48.878;13.316;2023-12-22T11:51:17;92558.34;;;3.32;100.00
21588;BME280;10956;48.878;13.316;2023-12-22T11:53:43;92563.53;;;3.11;100.00
21588;BME280;10956;48.878;13.316;2023-12-22T11:56:09;92571.84;;;3.13;100.00
21588;BME280;10956;48.878;13.316;2023-12-22T11:58:43;92527.34;;;3.20;100.00
21588;BME280;10956;48.878;13.316;2023-12-22T12:01:13;92540.91;;;3.27;100.00
21588;BME280;10956;48.878;13.316;2023-12-22T12:03:57;92529.97;;;3.30;100.00
21588;BME280;10956;48.878;13.316;2023-12-22T12:09:03;92537.50;;;3.42;100.00
21588;BME280;10956;48.878;13.316;2023-12-22T12:14:32;92528.13;;;3.15;100.00
21588;BME280;10956;48.878;13.316;2023-12-22T12:17:05;92538.81;;;3.04;100.00
21588;BME280;10956;48.878;13.316;2023-12-22T12:19:34;92536.47;;;3.02;100.00
21588;BME280;10956;48.878;13.316;2023-12-22T12:22:01;92521.88;;;3.01;100.00
21588;BME280;10956;48.878;13.316;2023-12-22T12:24:27;92529.97;;;3.05;100.00
21588;BME280;10956;48.878;13.316;2023-12-22T12:26:53;92543.50;;;3.07;100.00
21588;BME280;10956;48.878;13.316;2023-12-22T12:29:20;92533.59;;;2.99;100.00
21588;BME280;10956;48.878;13.316;2023-12-22T12:31:45;92539.84;;;2.92;100.00
21588;BME280;10956;48.878;13.316;2023-12-22T12:34:11;92546.06;;;2.76;100.00
21588;BME280;10956;48.878;13.316;2023-12-22T12:36:37;92552.78;;;2.57;100.00
21588;BME280;10956;48.878;13.316;2023-12-22T12:39:08;92520.00;;;2.51;100.00
21588;BME280;10956;48.878;13.316;2023-12-22T12:41:41;92524.66;;;2.49;100.00
21588;BME280;10956;48.878;13.316;2023-12-22T12:44:08;92515.31;;;2.48;100.00
21588;BME280;10956;48.878;13.316;2023-12-22T12:46:39;92517.66;;;2.49;100.00
21588;BME280;10956;48.878;13.316;2023-12-22T12:49:09;92522.06;;;2.44;100.00
21588;BME280;10956;48.878;13.316;2023-12-22T12:54:04;92520.22;;;2.34;100.00
21588;BME280;10956;48.878;13.316;2023-12-22T12:56:39;92528.78;;;2.35;100.00